Alexandra — V7ZT8 — position and weather

sailwx.info

Track history (hours):
 
Tides and Currents Weather Stations Pressure Air Temp Water Temp Dewpoint Dewpoint Depression Visibility Wind Speed Wind Dir Waves Ship Positions

Alexandra

Last reported at 2017-Sep-21 06:48 UTC. Time now 2017-Sep-21 18:06 UTC.
Position N 36°08' W 005°26'.

Length 270 m; draft 10.5 m.

Type: Cargo ship. MMSI: 538004912.

Date/timePositionNaut miles runAvg speedWind from/ knotsBaromVisibWave heightAir tempDewpointWater temp
2017-Sep-21 06:48N 36°08' W 005°26'0 0.0
2017-Sep-21 06:27N 36°08' W 005°26'0 0.0
2017-Sep-21 06:00N 36°08' W 005°26'0 0.0
2017-Sep-21 05:30N 36°08' W 005°26'0 0.0
2017-Sep-21 05:00N 36°08' W 005°26'2 3.1
2017-Sep-21 04:20N 36°08' W 005°24'1 4.4
2017-Sep-21 03:59N 36°06' W 005°24'3 5.4
2017-Sep-21 03:30N 36°03' W 005°23'510.0
2017-Sep-21 03:00N 35°59' W 005°25'713.6
2017-Sep-21 02:29N 35°56' W 005°34'1315.7
2017-Sep-21 01:38N 35°54' W 005°50'417.4
2017-Sep-21 01:24N 35°53' W 005°55'40219.9
2017-Sep-20 05:09N 30°54' W 011°17'319.6
2017-Sep-20 05:00N 30°52' W 011°18'4519.7
2017-Sep-20 02:42N 30°15' W 011°49'419.8
2017-Sep-20 02:30N 30°11' W 011°52'4219.6
2017-Sep-20 00:21N 29°37' W 012°19'1019.7
2017-Sep-19 23:51N 29°29' W 012°25'719.9
2017-Sep-19 23:30N 29°23' W 012°30'1019.8
2017-Sep-19 22:59N 29°14' W 012°36'1019.7
2017-Sep-19 22:28N 29°06' W 012°43'1019.7
2017-Sep-19 21:57N 28°57' W 012°50'919.6
2017-Sep-19 21:31N 28°50' W 012°55'1019.9
2017-Sep-19 21:00N 28°42' W 013°02'1019.9
2017-Sep-19 20:30N 28°34' W 013°08'1019.6
2017-Sep-19 20:00N 28°26' W 013°14'1019.5
2017-Sep-19 19:30N 28°18' W 013°21'1019.3
2017-Sep-19 19:00N 28°10' W 013°27'1019.4
2017-Sep-19 18:31N 28°02' W 013°33'1019.6
2017-Sep-19 18:00N 27°54' W 013°40'1019.5
2017-Sep-19 17:30N 27°46' W 013°47'1019.4
2017-Sep-19 17:00N 27°38' W 013°53'1020.0
2017-Sep-19 16:31N 27°31' W 014°00'1020.2
2017-Sep-19 16:01N 27°23' W 014°07'1020.2
2017-Sep-19 15:30N 27°15' W 014°14'1020.2
2017-Sep-19 15:00N 27°07' W 014°21'1020.0
2017-Sep-19 14:30N 26°60' W 014°29'1020.1
2017-Sep-19 14:00N 26°52' W 014°37'1019.9
2017-Sep-19 13:30N 26°45' W 014°44'1019.6
2017-Sep-19 13:00N 26°37' W 014°51'1019.0
2017-Sep-19 12:31N 26°30' W 014°58'918.6
2017-Sep-19 12:01N 26°23' W 015°05'918.5
2017-Sep-19 11:30N 26°16' W 015°12'918.5
2017-Sep-19 11:00N 26°09' W 015°18'918.7
2017-Sep-19 10:30N 26°02' W 015°25'1918.8
2017-Sep-19 09:30N 25°48' W 015°39'919.0
2017-Sep-19 09:00N 25°41' W 015°46'1019.6
2017-Sep-19 08:31N 25°34' W 015°53'1019.6
2017-Sep-19 08:00N 25°26' W 016°00'1519.5
2017-Sep-19 07:14N 25°15' W 016°11'17518.9
2017-Sep-18 21:58N 22°41' W 017°43'1220.3
2017-Sep-18 21:22N 22°29' W 017°47'  
Track history (hours):
 
Tides and Currents Weather Stations Pressure Air Temp Water Temp Dewpoint Dewpoint Depression Visibility Wind Speed Wind Dir Waves Ship Positions

Alexandra

Last reported at 2017-Sep-21 06:48 UTC. Time now 2017-Sep-21 18:06 UTC.
Position N 36°08' W 005°26'.

Length 270 m; draft 10.5 m.

Type: Cargo ship. MMSI: 538004912.

Date/timePositionNaut miles runAvg speedWind from/ knotsBaromVisibWave heightAir tempDewpointWater temp
2017-Sep-21 06:48N 36°08' W 005°26'0 0.0
2017-Sep-21 06:27N 36°08' W 005°26'0 0.0
2017-Sep-21 06:00N 36°08' W 005°26'0 0.0
2017-Sep-21 05:30N 36°08' W 005°26'0 0.0
2017-Sep-21 05:00N 36°08' W 005°26'2 3.1
2017-Sep-21 04:20N 36°08' W 005°24'1 4.4
2017-Sep-21 03:59N 36°06' W 005°24'3 5.4
2017-Sep-21 03:30N 36°03' W 005°23'510.0
2017-Sep-21 03:00N 35°59' W 005°25'713.6
2017-Sep-21 02:29N 35°56' W 005°34'1315.7
2017-Sep-21 01:38N 35°54' W 005°50'417.4
2017-Sep-21 01:24N 35°53' W 005°55'40219.9
2017-Sep-20 05:09N 30°54' W 011°17'319.6
2017-Sep-20 05:00N 30°52' W 011°18'4519.7
2017-Sep-20 02:42N 30°15' W 011°49'419.8
2017-Sep-20 02:30N 30°11' W 011°52'4219.6
2017-Sep-20 00:21N 29°37' W 012°19'1019.7
2017-Sep-19 23:51N 29°29' W 012°25'719.9
2017-Sep-19 23:30N 29°23' W 012°30'1019.8
2017-Sep-19 22:59N 29°14' W 012°36'1019.7
2017-Sep-19 22:28N 29°06' W 012°43'1019.7
2017-Sep-19 21:57N 28°57' W 012°50'919.6
2017-Sep-19 21:31N 28°50' W 012°55'1019.9
2017-Sep-19 21:00N 28°42' W 013°02'1019.9
2017-Sep-19 20:30N 28°34' W 013°08'1019.6
2017-Sep-19 20:00N 28°26' W 013°14'1019.5
2017-Sep-19 19:30N 28°18' W 013°21'1019.3
2017-Sep-19 19:00N 28°10' W 013°27'1019.4
2017-Sep-19 18:31N 28°02' W 013°33'1019.6
2017-Sep-19 18:00N 27°54' W 013°40'1019.5
2017-Sep-19 17:30N 27°46' W 013°47'1019.4
2017-Sep-19 17:00N 27°38' W 013°53'1020.0
2017-Sep-19 16:31N 27°31' W 014°00'1020.2
2017-Sep-19 16:01N 27°23' W 014°07'1020.2
2017-Sep-19 15:30N 27°15' W 014°14'1020.2
2017-Sep-19 15:00N 27°07' W 014°21'1020.0
2017-Sep-19 14:30N 26°60' W 014°29'1020.1
2017-Sep-19 14:00N 26°52' W 014°37'1019.9
2017-Sep-19 13:30N 26°45' W 014°44'1019.6
2017-Sep-19 13:00N 26°37' W 014°51'1019.0
2017-Sep-19 12:31N 26°30' W 014°58'918.6
2017-Sep-19 12:01N 26°23' W 015°05'918.5
2017-Sep-19 11:30N 26°16' W 015°12'918.5
2017-Sep-19 11:00N 26°09' W 015°18'918.7
2017-Sep-19 10:30N 26°02' W 015°25'1918.8
2017-Sep-19 09:30N 25°48' W 015°39'919.0
2017-Sep-19 09:00N 25°41' W 015°46'1019.6
2017-Sep-19 08:31N 25°34' W 015°53'1019.6
2017-Sep-19 08:00N 25°26' W 016°00'1519.5
2017-Sep-19 07:14N 25°15' W 016°11'17518.9
2017-Sep-18 21:58N 22°41' W 017°43'1220.3
2017-Sep-18 21:22N 22°29' W 017°47'  

Dump ship's entire track history